Time;durP1;ratioP1;P1;durP2;ratioP2;P2;SDS_P1;SDS_P2;PMS_P1;PMS_P2;Temp;Humidity;BMP_temperature;BMP_pressure;BME280_temperature;BME280_humidity;BME280_pressure;Samples;Min_cycle;Max_cycle;Signal;HPM_P1;HPM_P2
2023/09/11 00:00:45;;;;;;;38.90;25.70;;;;;;;-147.95;100.00;58458.38;5082410;28;20483;-85
2023/09/11 00:03:11;;;;;;;40.13;24.95;;;;;;;-147.95;100.00;58458.38;5050283;28;20028;-85
2023/09/11 00:05:36;;;;;;;44.13;25.83;;;;;;;-147.95;100.00;58458.38;5086397;28;20032;-85
2023/09/11 00:08:02;;;;;;;42.63;23.58;;;;;;;-147.95;100.00;58458.38;5071457;28;20040;-85
2023/09/11 00:10:27;;;;;;;42.28;25.10;;;;;;;-147.95;100.00;58458.38;5087122;28;20039;-85
2023/09/11 00:12:52;;;;;;;41.42;25.30;;;;;;;-147.95;100.00;58458.38;5081773;28;20029;-85
2023/09/11 00:15:18;;;;;;;41.00;24.45;;;;;;;-147.95;100.00;58458.38;5071626;28;20495;-85
2023/09/11 00:17:43;;;;;;;43.63;25.35;;;;;;;-147.95;100.00;58458.38;5071050;28;20410;-85
2023/09/11 00:20:12;;;;;;;41.15;22.58;;;;;;;-147.95;100.00;58458.38;5082629;28;20364;-85
2023/09/11 00:22:38;;;;;;;39.55;24.55;;;;;;;-147.95;100.00;58458.38;5086607;28;20043;-85
2023/09/11 00:25:04;;;;;;;44.38;24.67;;;;;;;-147.95;100.00;58458.38;5087026;28;20511;-85
2023/09/11 00:27:29;;;;;;;44.10;24.52;;;;;;;-147.95;100.00;58458.38;5085967;28;20089;-85
2023/09/11 00:29:55;;;;;;;42.38;23.50;;;;;;;-147.95;100.00;58458.38;5067554;28;20693;-85
2023/09/11 00:32:20;;;;;;;42.67;24.80;;;;;;;-147.95;100.00;58458.38;5089412;28;20509;-86
2023/09/11 00:34:46;;;;;;;48.47;24.80;;;;;;;-147.95;100.00;58458.38;5089162;28;20056;-85
2023/09/11 00:37:11;;;;;;;50.20;24.80;;;;;;;-147.95;100.00;58458.38;5085680;28;20028;-86
2023/09/11 00:39:37;;;;;;;39.47;23.23;;;;;;;-147.95;100.00;58458.38;5069579;28;20402;-85
2023/09/11 00:42:02;;;;;;;37.40;23.60;;;;;;;-147.95;100.00;58458.38;5082490;28;20403;-85
2023/09/11 00:44:29;;;;;;;46.55;24.48;;;;;;;-147.95;100.00;58458.38;5082856;28;20073;-85
2023/09/11 00:46:55;;;;;;;48.92;25.30;;;;;;;-147.95;100.00;58458.38;5080012;28;20028;-85
2023/09/11 00:49:22;;;;;;;38.25;25.05;;;;;;;-147.95;100.00;58458.38;5079202;28;20036;-85
2023/09/11 00:51:50;;;;;;;47.55;26.38;;;;;;;-147.95;100.00;58458.38;5090432;28;20052;-85
2023/09/11 00:54:18;;;;;;;46.33;26.00;;;;;;;-147.95;100.00;58458.38;5078426;28;20047;-85
2023/09/11 00:56:46;;;;;;;44.45;27.20;;;;;;;-147.95;100.00;58458.38;5087585;28;20032;-85
2023/09/11 00:59:12;;;;;;;42.83;26.67;;;;;;;-147.95;100.00;58458.38;5080106;28;20024;-85
2023/09/11 01:01:41;;;;;;;47.15;28.50;;;;;;;-147.95;100.00;58458.38;5072296;28;20079;-85
2023/09/11 01:04:06;;;;;;;41.63;25.80;;;;;;;-147.95;100.00;58458.38;5087405;28;20048;-85
2023/09/11 01:06:32;;;;;;;46.15;26.17;;;;;;;-147.95;100.00;58458.38;5072563;28;20459;-85
2023/09/11 01:08:57;;;;;;;48.17;24.70;;;;;;;-147.95;100.00;58458.38;5082110;28;20044;-85
2023/09/11 01:11:23;;;;;;;45.33;26.05;;;;;;;-147.95;100.00;58458.38;5081026;28;21338;-85
2023/09/11 01:13:48;;;;;;;47.80;25.95;;;;;;;-147.95;100.00;58458.38;5082771;28;20108;-86
2023/09/11 01:16:13;;;;;;;52.20;27.15;;;;;;;-147.95;100.00;58458.38;5085625;28;20085;-85
2023/09/11 01:18:48;;;;;;;37.10;24.45;;;;;;;-147.95;100.00;58458.38;5087576;28;20078;-85
2023/09/11 01:21:20;;;;;;;43.15;24.98;;;;;;;-147.95;100.00;58458.38;5088310;28;20035;-85
2023/09/11 01:24:22;;;;;;;44.85;23.77;;;;;;;-147.95;100.00;58458.38;5089452;28;20850;-85
2023/09/11 01:26:58;;;;;;;45.90;24.45;;;;;;;-147.95;100.00;58458.38;5080029;28;20052;-85
2023/09/11 01:29:25;;;;;;;42.78;24.65;;;;;;;-147.95;100.00;58458.38;5089763;28;20401;-85
2023/09/11 01:31:53;;;;;;;34.05;23.63;;;;;;;-147.95;100.00;58458.38;5083680;28;20056;-85
2023/09/11 01:34:19;;;;;;;49.53;25.65;;;;;;;-147.95;100.00;58458.38;5087066;28;20052;-85
2023/09/11 01:36:44;;;;;;;40.83;26.58;;;;;;;-147.95;100.00;58458.38;5088781;28;20118;-85
2023/09/11 01:39:10;;;;;;;47.75;26.60;;;;;;;-147.95;100.00;58458.38;5070959;28;20030;-85
2023/09/11 01:41:39;;;;;;;39.15;26.23;;;;;;;-147.95;100.00;58458.38;5062042;28;20025;-85
2023/09/11 01:44:25;;;;;;;46.42;26.42;;;;;;;-147.95;100.00;58458.38;5078975;28;20044;-85
2023/09/11 01:46:52;;;;;;;43.90;26.23;;;;;;;-147.95;100.00;58458.38;5083048;28;20032;-85
2023/09/11 01:49:20;;;;;;;45.33;26.05;;;;;;;-147.95;100.00;58458.38;5085736;28;20048;-85
2023/09/11 01:51:47;;;;;;;46.38;26.60;;;;;;;-147.95;100.00;58458.38;5087182;28;20032;-85
2023/09/11 01:54:14;;;;;;;45.35;27.75;;;;;;;-147.95;100.00;58458.38;5066541;28;20115;-85
2023/09/11 01:56:39;;;;;;;46.50;25.98;;;;;;;-147.95;100.00;58458.38;5084565;28;20027;-85
2023/09/11 01:59:05;;;;;;;39.40;26.20;;;;;;;-147.95;100.00;58458.38;5084692;28;20032;-85
2023/09/11 02:01:31;;;;;;;42.75;28.67;;;;;;;-147.95;100.00;58458.38;5071936;28;20032;-85
2023/09/11 02:03:56;;;;;;;45.60;27.65;;;;;;;-147.95;100.00;58458.38;5066883;28;20020;-85
2023/09/11 02:06:21;;;;;;;46.70;25.52;;;;;;;-147.95;100.00;58458.38;5082835;28;20506;-84
2023/09/11 02:08:47;;;;;;;50.15;27.70;;;;;;;-147.95;100.00;58458.38;5046376;28;20038;-85
2023/09/11 02:11:13;;;;;;;48.55;28.02;;;;;;;-147.95;100.00;58458.38;5083225;28;20051;-85
2023/09/11 02:13:38;;;;;;;53.58;30.45;;;;;;;-147.95;100.00;58458.38;5079765;28;20032;-85
2023/09/11 02:16:04;;;;;;;49.97;32.42;;;;;;;-147.95;100.00;58458.38;5070370;28;20494;-85
2023/09/11 02:18:29;;;;;;;61.38;33.70;;;;;;;-147.95;100.00;58458.38;5078301;28;20454;-85
2023/09/11 02:20:54;;;;;;;57.53;33.83;;;;;;;-147.95;100.00;58458.38;5068963;28;20028;-85
2023/09/11 02:23:22;;;;;;;51.60;31.60;;;;;;;-147.95;100.00;58458.38;5071674;28;20036;-85
2023/09/11 02:25:48;;;;;;;55.00;31.77;;;;;;;-147.95;100.00;58458.38;5084879;28;20088;-85
2023/09/11 02:28:14;;;;;;;45.90;32.60;;;;;;;-147.95;100.00;58458.38;5086173;28;20395;-85
2023/09/11 02:30:39;;;;;;;52.47;33.42;;;;;;;-147.95;100.00;58458.38;5068943;28;20055;-85
2023/09/11 02:33:05;;;;;;;55.38;34.22;;;;;;;-147.95;100.00;58458.38;5087552;28;20492;-86
2023/09/11 02:35:31;;;;;;;55.78;33.20;;;;;;;-147.95;100.00;58458.38;5086362;28;20047;-85
2023/09/11 02:37:57;;;;;;;54.20;32.88;;;;;;;-147.95;100.00;58458.38;5081882;28;20040;-85
2023/09/11 02:40:23;;;;;;;49.42;33.72;;;;;;;-147.95;100.00;58458.38;5068058;28;20087;-85
2023/09/11 02:42:48;;;;;;;56.08;35.55;;;;;;;-147.95;100.00;58458.38;5079137;28;20522;-85
2023/09/11 02:45:13;;;;;;;48.95;33.05;;;;;;;-147.95;100.00;58458.38;5085447;28;20442;-84
2023/09/11 02:47:39;;;;;;;63.72;36.22;;;;;;;-147.95;100.00;58458.38;5066978;28;20650;-85
2023/09/11 02:50:05;;;;;;;56.28;36.03;;;;;;;-147.95;100.00;58458.38;5073557;28;20483;-85
2023/09/11 02:52:30;;;;;;;62.83;36.92;;;;;;;-147.95;100.00;58458.38;5086285;28;20036;-85
2023/09/11 02:54:56;;;;;;;56.00;34.25;;;;;;;-147.95;100.00;58458.38;5086986;28;20075;-85
2023/09/11 02:57:21;;;;;;;58.90;37.30;;;;;;;-147.95;100.00;58458.38;5072490;28;20112;-85
2023/09/11 02:59:47;;;;;;;64.50;37.95;;;;;;;-147.95;100.00;58458.38;5084300;28;20056;-85
2023/09/11 03:02:12;;;;;;;54.50;36.88;;;;;;;-147.95;100.00;58458.38;5052000;28;20048;-85
2023/09/11 03:04:38;;;;;;;64.75;37.75;;;;;;;-147.95;100.00;58458.38;5085285;28;20067;-85
2023/09/11 03:07:03;;;;;;;58.42;36.30;;;;;;;-147.95;100.00;58458.38;5085342;28;20086;-85
2023/09/11 03:09:29;;;;;;;58.72;37.90;;;;;;;-147.95;100.00;58458.38;5065069;28;20459;-86
2023/09/11 03:11:54;;;;;;;53.08;35.58;;;;;;;-147.95;100.00;58458.38;5048293;28;20455;-78
2023/09/11 03:14:20;;;;;;;68.13;36.40;;;;;;;-147.95;100.00;58458.38;5078853;28;20032;-78
2023/09/11 03:16:45;;;;;;;65.82;35.70;;;;;;;-147.95;100.00;58458.38;5053609;28;20494;-78
2023/09/11 03:19:11;;;;;;;61.22;37.30;;;;;;;-147.95;100.00;58458.38;5068855;28;20036;-78
2023/09/11 03:21:37;;;;;;;58.60;35.35;;;;;;;-147.95;100.00;58458.38;5086580;28;20036;-78
2023/09/11 03:24:03;;;;;;;55.70;36.28;;;;;;;-147.95;100.00;58458.38;5077278;28;20032;-78
2023/09/11 03:26:28;;;;;;;58.83;36.80;;;;;;;-147.95;100.00;58458.38;5083991;28;20393;-78
2023/09/11 03:28:54;;;;;;;59.40;36.17;;;;;;;-147.95;100.00;58458.38;5085552;28;20479;-78
2023/09/11 03:31:19;;;;;;;62.53;36.45;;;;;;;-147.95;100.00;58458.38;5077904;28;20081;-78
2023/09/11 03:33:45;;;;;;;59.38;35.45;;;;;;;-147.95;100.00;58458.38;5050618;28;20076;-78
2023/09/11 03:36:17;;;;;;;57.42;34.75;;;;;;;-147.95;100.00;58458.38;5088733;28;20024;-77
2023/09/11 03:38:43;;;;;;;64.60;35.53;;;;;;;-147.95;100.00;58458.38;5090404;28;20131;-77
2023/09/11 03:41:09;;;;;;;75.60;37.58;;;;;;;-147.95;100.00;58458.38;5080595;28;20105;-78
2023/09/11 03:43:35;;;;;;;54.85;35.03;;;;;;;-147.95;100.00;58458.38;5086649;28;20107;-78
2023/09/11 03:46:01;;;;;;;53.38;35.60;;;;;;;-147.95;100.00;58458.38;5071859;28;20044;-78
2023/09/11 03:48:26;;;;;;;56.75;35.05;;;;;;;-147.95;100.00;58458.38;5080196;28;20036;-78
2023/09/11 03:50:52;;;;;;;51.92;33.25;;;;;;;-147.95;100.00;58458.38;5065386;28;20035;-77
2023/09/11 03:53:17;;;;;;;51.47;34.05;;;;;;;-147.95;100.00;58458.38;5051488;28;20543;-78
2023/09/11 03:55:43;;;;;;;59.60;36.83;;;;;;;-147.95;100.00;58458.38;5073386;28;20621;-78
2023/09/11 03:58:08;;;;;;;65.68;36.17;;;;;;;-147.95;100.00;58458.38;5086437;28;20032;-78
2023/09/11 04:00:33;;;;;;;54.50;34.05;;;;;;;-147.95;100.00;58458.38;5089383;28;20533;-78
2023/09/11 04:02:59;;;;;;;54.08;33.72;;;;;;;-147.95;100.00;58458.38;5089161;28;20028;-78
2023/09/11 04:05:24;;;;;;;58.03;37.60;;;;;;;-147.95;100.00;58458.38;5087064;28;20036;-77
2023/09/11 04:07:50;;;;;;;58.83;35.53;;;;;;;-147.95;100.00;58458.38;5083276;28;20028;-77
2023/09/11 04:10:15;;;;;;;54.33;34.83;;;;;;;-147.95;100.00;58458.38;5086219;28;20498;-78
2023/09/11 04:12:40;;;;;;;56.90;34.50;;;;;;;-147.95;100.00;58458.38;5089893;28;20482;-79
2023/09/11 04:15:06;;;;;;;54.30;34.13;;;;;;;-147.95;100.00;58458.38;5088690;28;20028;-78
2023/09/11 04:17:32;;;;;;;61.08;35.00;;;;;;;-147.95;100.00;58458.38;5082287;28;20024;-78
2023/09/11 04:19:57;;;;;;;56.67;33.22;;;;;;;-147.95;100.00;58458.38;5084520;28;20043;-86
2023/09/11 04:22:23;;;;;;;54.60;32.78;;;;;;;-147.95;100.00;58458.38;5086456;28;20055;-85
2023/09/11 04:24:48;;;;;;;52.72;32.78;;;;;;;-147.95;100.00;58458.38;5085263;28;20042;-85
2023/09/11 04:27:13;;;;;;;54.17;32.97;;;;;;;-147.95;100.00;58458.38;5091000;28;20032;-85
2023/09/11 04:29:39;;;;;;;52.83;31.38;;;;;;;-147.95;100.00;58458.38;5073577;28;20028;-86
2023/09/11 04:32:04;;;;;;;45.63;30.67;;;;;;;-147.95;100.00;58458.38;5069631;28;20028;-84
2023/09/11 04:34:30;;;;;;;39.90;28.50;;;;;;;-147.95;100.00;58458.38;5083065;28;20406;-84
2023/09/11 04:36:55;;;;;;;51.30;28.90;;;;;;;-147.95;100.00;58458.38;5086006;28;20107;-86
2023/09/11 04:39:23;;;;;;;41.33;27.63;;;;;;;-147.95;100.00;58458.38;5081502;28;20036;-88
2023/09/11 04:41:49;;;;;;;46.45;29.55;;;;;;;-147.95;100.00;58458.38;5087765;28;20048;-88
2023/09/11 04:44:14;;;;;;;38.50;27.25;;;;;;;-147.95;100.00;58458.38;5082532;28;20056;-85
2023/09/11 04:46:40;;;;;;;46.03;26.75;;;;;;;-147.95;100.00;58458.38;5080491;28;20112;-86
2023/09/11 04:49:05;;;;;;;45.95;27.00;;;;;;;-147.95;100.00;58458.38;5073569;28;20032;-85
2023/09/11 04:51:31;;;;;;;45.17;28.15;;;;;;;-147.95;100.00;58458.38;5058491;28;20028;-84
2023/09/11 04:53:56;;;;;;;43.28;28.98;;;;;;;-147.95;100.00;58458.38;5075121;28;20490;-85
2023/09/11 04:56:22;;;;;;;44.13;27.63;;;;;;;-147.95;100.00;58458.38;5086503;28;20027;-85
2023/09/11 04:58:47;;;;;;;49.55;29.77;;;;;;;-147.95;100.00;58458.38;5072643;28;20039;-85
2023/09/11 05:01:13;;;;;;;51.22;27.25;;;;;;;-147.95;100.00;58458.38;5082385;28;20036;-85
2023/09/11 05:03:39;;;;;;;52.20;28.92;;;;;;;-147.95;100.00;58458.38;5072892;28;20115;-86
2023/09/11 05:06:06;;;;;;;48.55;28.63;;;;;;;-147.95;100.00;58458.38;5083393;28;20090;-86
2023/09/11 05:08:32;;;;;;;48.85;29.50;;;;;;;-147.95;100.00;58458.38;5083758;28;20107;-86
2023/09/11 05:11:01;;;;;;;45.03;27.95;;;;;;;-147.95;100.00;58458.38;5083881;28;20131;-86
2023/09/11 05:13:26;;;;;;;47.17;28.40;;;;;;;-147.95;100.00;58458.38;5081151;28;20035;-86
2023/09/11 05:15:52;;;;;;;48.45;27.63;;;;;;;-147.95;100.00;58458.38;5054055;28;20020;-86
2023/09/11 05:18:17;;;;;;;51.47;27.75;;;;;;;-147.95;100.00;58458.38;5082342;28;20051;-86
2023/09/11 05:20:44;;;;;;;49.10;27.10;;;;;;;-147.95;100.00;58458.38;5084982;28;20502;-86
2023/09/11 05:23:10;;;;;;;48.92;28.00;;;;;;;-147.95;100.00;58458.38;5083386;28;20076;-86
2023/09/11 05:25:38;;;;;;;51.47;28.92;;;;;;;-147.95;100.00;58458.38;5083706;28;20036;-86
2023/09/11 05:28:05;;;;;;;51.53;27.98;;;;;;;-147.95;100.00;58458.38;5089377;28;20059;-86
2023/09/11 05:30:31;;;;;;;41.38;26.65;;;;;;;-147.95;100.00;58458.38;5070271;28;20085;-78
2023/09/11 05:32:56;;;;;;;41.22;26.05;;;;;;;-147.95;100.00;58458.38;5085220;28;20515;-78
2023/09/11 05:35:21;;;;;;;50.50;26.70;;;;;;;-147.95;100.00;58458.38;5081572;28;20052;-78
2023/09/11 05:37:47;;;;;;;48.60;25.67;;;;;;;-147.95;100.00;58458.38;5085765;28;20032;-78
2023/09/11 05:40:12;;;;;;;44.45;25.95;;;;;;;-147.95;100.00;58458.38;5083719;28;20028;-78
2023/09/11 05:42:38;;;;;;;49.67;25.58;;;;;;;-147.95;100.00;58458.38;5089756;28;20092;-78
2023/09/11 05:45:05;;;;;;;40.67;25.02;;;;;;;-147.95;100.00;58458.38;5070839;28;20387;-78
2023/09/11 05:47:32;;;;;;;58.15;25.75;;;;;;;-147.95;100.00;58458.38;5086256;28;20027;-78
2023/09/11 05:50:00;;;;;;;39.15;24.98;;;;;;;-147.95;100.00;58458.38;5084539;28;20036;-78
2023/09/11 05:52:29;;;;;;;42.88;24.33;;;;;;;-147.95;100.00;58458.38;5088211;28;20032;-78
2023/09/11 05:54:54;;;;;;;39.55;23.90;;;;;;;-147.95;100.00;58458.38;5086549;28;20023;-78
2023/09/11 05:57:21;;;;;;;37.33;23.48;;;;;;;-147.95;100.00;58458.38;5067380;28;20032;-78
2023/09/11 05:59:46;;;;;;;45.15;23.70;;;;;;;-147.95;100.00;58458.38;5079095;28;20394;-78
2023/09/11 06:02:12;;;;;;;40.25;23.05;;;;;;;-147.95;100.00;58458.38;5081941;28;20483;-78
2023/09/11 06:04:38;;;;;;;40.35;21.45;;;;;;;-147.95;100.00;58458.38;5070818;28;20478;-76
2023/09/11 06:07:03;;;;;;;40.15;21.33;;;;;;;-147.95;100.00;58458.38;5062149;28;20494;-77
2023/09/11 06:09:29;;;;;;;38.22;20.17;;;;;;;-147.95;100.00;58458.38;5085951;28;20479;-77
2023/09/11 06:11:55;;;;;;;39.80;19.90;;;;;;;-147.95;100.00;58458.38;5079422;28;20072;-77
2023/09/11 06:14:20;;;;;;;36.28;20.13;;;;;;;-147.95;100.00;58458.38;5087633;28;20078;-77
2023/09/11 06:16:46;;;;;;;37.85;19.40;;;;;;;-147.95;100.00;58458.38;5086656;28;20224;-77
2023/09/11 06:19:11;;;;;;;44.65;19.73;;;;;;;-147.95;100.00;58458.38;5083913;28;20471;-77
2023/09/11 06:21:37;;;;;;;34.42;18.20;;;;;;;-147.95;100.00;58458.38;5080612;28;20028;-77
2023/09/11 06:24:04;;;;;;;33.60;17.98;;;;;;;-147.95;100.00;58458.38;5078783;28;20440;-77
2023/09/11 06:26:30;;;;;;;36.85;18.02;;;;;;;-147.95;100.00;58458.38;5083630;28;20381;-77
2023/09/11 06:28:55;;;;;;;36.97;18.15;;;;;;;-147.95;100.00;58458.38;5086815;28;20020;-77
2023/09/11 06:31:22;;;;;;;40.67;17.85;;;;;;;-147.95;100.00;58458.38;5084523;28;20061;-78
2023/09/11 06:33:48;;;;;;;44.47;18.55;;;;;;;-147.95;100.00;58458.38;5086792;28;20032;-77
2023/09/11 06:36:14;;;;;;;44.05;18.73;;;;;;;-147.95;100.00;58458.38;5067861;28;20479;-78
2023/09/11 06:38:40;;;;;;;35.58;17.90;;;;;;;-147.95;100.00;58458.38;5089373;28;20016;-78
2023/09/11 06:41:07;;;;;;;43.53;17.92;;;;;;;-147.95;100.00;58458.38;5087376;28;20031;-77
2023/09/11 06:43:32;;;;;;;37.78;18.35;;;;;;;-147.95;100.00;58458.38;5082089;28;20514;-77
2023/09/11 06:45:58;;;;;;;44.10;19.15;;;;;;;-147.95;100.00;58458.38;5068634;28;20039;-77
2023/09/11 06:48:23;;;;;;;39.05;19.85;;;;;;;-147.95;100.00;58458.38;5087500;28;20039;-77
2023/09/11 06:50:51;;;;;;;42.67;19.48;;;;;;;-147.95;100.00;58458.38;5080117;28;20399;-77
2023/09/11 06:53:17;;;;;;;37.45;20.23;;;;;;;-147.95;100.00;58458.38;5084930;28;20154;-77
2023/09/11 06:55:44;;;;;;;41.08;19.90;;;;;;;-147.95;100.00;58458.38;5080786;28;20115;-77
2023/09/11 06:58:09;;;;;;;43.80;21.10;;;;;;;-147.95;100.00;58458.38;5077359;28;20035;-76
2023/09/11 07:00:35;;;;;;;35.90;20.13;;;;;;;-147.95;100.00;58458.38;5085362;28;20020;-77
2023/09/11 07:03:01;;;;;;;41.42;19.83;;;;;;;-147.95;100.00;58458.38;5084262;28;20092;-77
2023/09/11 07:05:27;;;;;;;41.22;20.15;;;;;;;-147.95;100.00;58458.38;5081675;28;20027;-77
2023/09/11 07:07:53;;;;;;;39.08;19.55;;;;;;;-147.95;100.00;58458.38;5081848;28;20036;-77
2023/09/11 07:10:18;;;;;;;42.65;19.52;;;;;;;-147.95;100.00;58458.38;5087047;28;20028;-77
2023/09/11 07:12:44;;;;;;;42.35;19.20;;;;;;;-147.95;100.00;58458.38;5080810;28;20036;-77
2023/09/11 07:15:10;;;;;;;38.00;19.33;;;;;;;-147.95;100.00;58458.38;5088411;28;20628;-77
2023/09/11 07:17:36;;;;;;;45.90;18.98;;;;;;;-147.95;100.00;58458.38;5079748;28;20086;-77
2023/09/11 07:20:07;;;;;;;42.85;17.67;;;;;;;-147.95;100.00;58458.38;5084567;28;20398;-77
2023/09/11 07:22:32;;;;;;;40.15;17.65;;;;;;;-147.95;100.00;58458.38;5087411;28;20479;-77
2023/09/11 07:24:59;;;;;;;42.50;17.50;;;;;;;-147.95;100.00;58458.38;5089930;28;20030;-77
2023/09/11 07:27:33;;;;;;;38.45;16.50;;;;;;;-147.95;100.00;58458.38;5085002;28;20036;-77
2023/09/11 07:30:01;;;;;;;51.70;16.25;;;;;;;-147.95;100.00;58458.38;5081289;28;20038;-77
2023/09/11 07:32:30;;;;;;;37.03;15.55;;;;;;;-147.95;100.00;58458.38;5081503;28;20032;-78
2023/09/11 07:34:56;;;;;;;32.22;16.30;;;;;;;-147.95;100.00;58458.38;5086345;28;20040;-77
2023/09/11 07:37:21;;;;;;;35.95;15.63;;;;;;;-147.95;100.00;58458.38;5089185;28;20035;-77
2023/09/11 07:39:46;;;;;;;29.75;16.05;;;;;;;-147.95;100.00;58458.38;5095576;28;20032;-77
2023/09/11 07:42:12;;;;;;;38.80;14.18;;;;;;;-147.95;100.00;58458.38;5090378;28;20697;-78
2023/09/11 07:44:37;;;;;;;32.40;14.20;;;;;;;-147.95;100.00;58458.38;5084437;28;20039;-78
2023/09/11 07:47:03;;;;;;;40.17;14.00;;;;;;;-147.95;100.00;58458.38;5088647;28;20036;-78
2023/09/11 07:49:28;;;;;;;40.15;13.13;;;;;;;-147.95;100.00;58458.38;5086660;28;20514;-78
2023/09/11 07:51:55;;;;;;;27.42;13.20;;;;;;;-147.95;100.00;58458.38;5085122;28;20039;-84
2023/09/11 07:54:21;;;;;;;26.10;11.75;;;;;;;-147.95;100.00;58458.38;5068742;28;20039;-85
2023/09/11 07:56:46;;;;;;;25.08;11.98;;;;;;;-147.95;100.00;58458.38;5083520;28;20506;-84
2023/09/11 07:59:12;;;;;;;26.33;12.23;;;;;;;-147.95;100.00;58458.38;5084363;28;20083;-83
2023/09/11 08:01:37;;;;;;;26.67;13.25;;;;;;;-147.95;100.00;58458.38;5072186;28;20067;-83
2023/09/11 08:04:04;;;;;;;26.42;13.00;;;;;;;-147.95;100.00;58458.38;5089593;28;20093;-83
2023/09/11 08:06:29;;;;;;;33.53;13.30;;;;;;;-147.95;100.00;58458.38;5065252;28;20497;-83
2023/09/11 08:08:56;;;;;;;33.83;12.85;;;;;;;-147.95;100.00;58458.38;5072761;28;20057;-83
2023/09/11 08:11:21;;;;;;;27.90;13.60;;;;;;;-147.95;100.00;58458.38;5086883;28;20072;-83
2023/09/11 08:13:49;;;;;;;29.88;12.98;;;;;;;-147.95;100.00;58458.38;5073279;28;20032;-83
2023/09/11 08:16:17;;;;;;;37.55;13.68;;;;;;;-147.95;100.00;58458.38;5086990;28;20027;-83
2023/09/11 08:18:43;;;;;;;26.77;14.10;;;;;;;-147.95;100.00;58458.38;5086550;28;20032;-83
2023/09/11 08:21:09;;;;;;;29.33;13.43;;;;;;;-147.95;100.00;58458.38;5087638;28;20055;-83
2023/09/11 08:23:35;;;;;;;33.60;13.23;;;;;;;-147.95;100.00;58458.38;5086726;28;20056;-83
2023/09/11 08:26:03;;;;;;;38.90;15.07;;;;;;;-147.95;100.00;58458.38;5067990;28;20036;-83
2023/09/11 08:28:30;;;;;;;24.60;14.05;;;;;;;-147.95;100.00;58458.38;5087044;28;20107;-83
2023/09/11 08:30:56;;;;;;;40.38;14.35;;;;;;;-147.95;100.00;58458.38;5088708;28;20036;-83
2023/09/11 08:33:23;;;;;;;23.98;14.13;;;;;;;-147.95;100.00;58458.38;5076165;28;20519;-82
2023/09/11 08:35:48;;;;;;;25.30;13.77;;;;;;;-147.95;100.00;58458.38;5064258;28;20067;-83
2023/09/11 08:38:17;;;;;;;37.33;14.52;;;;;;;-147.95;100.00;58458.38;5084592;28;20071;-82
2023/09/11 08:40:43;;;;;;;34.45;14.57;;;;;;;-147.95;100.00;58458.38;5087708;28;20030;-80
2023/09/11 08:43:09;;;;;;;27.48;14.52;;;;;;;-147.95;100.00;58458.38;5086503;28;20024;-82
2023/09/11 08:45:34;;;;;;;35.13;14.65;;;;;;;-147.95;100.00;58458.38;5086523;28;21295;-82
2023/09/11 08:48:06;;;;;;;44.35;14.60;;;;;;;-147.95;100.00;58458.38;5082672;28;20154;-82
2023/09/11 08:50:34;;;;;;;28.42;14.20;;;;;;;-147.95;100.00;58458.38;5085054;28;20027;-82
2023/09/11 08:53:01;;;;;;;44.25;14.55;;;;;;;-147.95;100.00;58458.38;5081306;28;20029;-81
2023/09/11 08:55:33;;;;;;;33.05;13.32;;;;;;;-147.95;100.00;58458.38;5082227;28;20093;-84
2023/09/11 08:58:02;;;;;;;25.40;14.27;;;;;;;-147.95;100.00;58458.38;5086830;28;20032;-83
2023/09/11 09:00:28;;;;;;;29.67;12.43;;;;;;;-147.95;100.00;58458.38;5080633;28;20786;-83
2023/09/11 09:02:54;;;;;;;26.58;13.20;;;;;;;-147.95;100.00;58458.38;5084628;28;20035;-83
2023/09/11 09:05:21;;;;;;;28.67;13.40;;;;;;;-147.95;100.00;58458.38;5083602;28;20505;-82
2023/09/11 09:07:48;;;;;;;22.85;12.30;;;;;;;-147.95;100.00;58458.38;5085776;28;20024;-82
2023/09/11 09:10:14;;;;;;;22.17;12.27;;;;;;;-147.95;100.00;58458.38;5084275;28;20043;-83
2023/09/11 09:12:40;;;;;;;24.05;11.60;;;;;;;-147.95;100.00;58458.38;5087635;28;20047;-83
2023/09/11 09:15:06;;;;;;;35.33;12.77;;;;;;;-147.95;100.00;58458.38;5083459;28;20032;-82
2023/09/11 09:17:33;;;;;;;22.05;11.52;;;;;;;-147.95;100.00;58458.38;5087752;28;20016;-83
2023/09/11 09:19:58;;;;;;;20.15;12.50;;;;;;;-147.95;100.00;58458.38;5087206;28;20036;-82
2023/09/11 09:22:24;;;;;;;30.40;12.18;;;;;;;-147.95;100.00;58458.38;5084944;28;20402;-82
2023/09/11 09:24:54;;;;;;;27.15;12.50;;;;;;;-147.95;100.00;58458.38;5078520;28;20032;-82
2023/09/11 09:27:21;;;;;;;30.52;12.07;;;;;;;-147.95;100.00;58458.38;5083203;28;20027;-83
2023/09/11 09:29:48;;;;;;;25.23;11.52;;;;;;;-147.95;100.00;58458.38;5083862;28;20024;-83
2023/09/11 09:32:15;;;;;;;20.05;11.05;;;;;;;-147.95;100.00;58458.38;5081692;28;20108;-83
2023/09/11 09:34:54;;;;;;;30.88;12.73;;;;;;;-147.95;100.00;58458.38;5078570;28;20048;-83
2023/09/11 09:37:21;;;;;;;34.70;13.10;;;;;;;-147.95;100.00;58458.38;5082682;28;20044;-83
2023/09/11 09:39:48;;;;;;;25.08;13.25;;;;;;;-147.95;100.00;58458.38;5087550;28;20048;-83
2023/09/11 09:42:15;;;;;;;31.08;12.07;;;;;;;-147.95;100.00;58458.38;5083007;28;20036;-83
2023/09/11 09:44:43;;;;;;;26.00;11.20;;;;;;;-147.95;100.00;58458.38;5076743;28;20047;-83
2023/09/11 09:47:15;;;;;;;29.20;12.25;;;;;;;-147.95;100.00;58458.38;5079900;28;20027;-83
2023/09/11 09:49:48;;;;;;;23.13;12.20;;;;;;;-147.95;100.00;58458.38;5077276;28;20169;-83
2023/09/11 09:52:14;;;;;;;21.30;12.15;;;;;;;-147.95;100.00;58458.38;5096406;28;20024;-83
2023/09/11 09:54:52;;;;;;;37.40;13.45;;;;;;;-147.95;100.00;58458.38;5074218;28;20487;-83
2023/09/11 09:57:20;;;;;;;32.00;11.75;;;;;;;-147.95;100.00;58458.38;5087184;28;20024;-83
2023/09/11 09:59:49;;;;;;;23.63;11.48;;;;;;;-147.95;100.00;58458.38;5079142;28;20040;-83
2023/09/11 10:02:23;;;;;;;20.73;11.23;;;;;;;-147.95;100.00;58458.38;5081462;28;20035;-83
2023/09/11 10:04:54;;;;;;;25.15;10.90;;;;;;;-147.95;100.00;58458.38;5078755;28;20032;-83
2023/09/11 10:07:37;;;;;;;20.35;11.68;;;;;;;-147.95;100.00;58458.38;5078700;28;20404;-83
2023/09/11 10:10:23;;;;;;;30.30;11.00;;;;;;;-147.95;100.00;58458.38;5086472;28;20077;-78
2023/09/11 10:13:06;;;;;;;24.08;12.43;;;;;;;-147.95;100.00;58458.38;5081757;28;20024;-77
2023/09/11 10:15:34;;;;;;;20.73;10.10;;;;;;;-147.95;100.00;58458.38;5085107;28;20027;-77
2023/09/11 10:18:01;;;;;;;25.15;11.05;;;;;;;-147.95;100.00;58458.38;5086853;28;20036;-77
2023/09/11 10:20:27;;;;;;;24.10;9.85;;;;;;;-147.95;100.00;58458.38;5086138;28;20032;-77
2023/09/11 10:22:57;;;;;;;16.30;8.77;;;;;;;-147.95;100.00;58458.38;5081325;28;20097;-77
2023/09/11 10:25:24;;;;;;;20.55;8.48;;;;;;;-147.95;100.00;58458.38;5082199;28;20020;-78
2023/09/11 10:27:53;;;;;;;21.75;8.65;;;;;;;-147.95;100.00;58458.38;5086223;28;20056;-77
2023/09/11 10:30:24;;;;;;;18.33;7.60;;;;;;;-147.95;100.00;58458.38;5086930;28;20023;-78
2023/09/11 10:32:59;;;;;;;21.98;8.02;;;;;;;-147.95;100.00;58458.38;5083348;28;20040;-78
2023/09/11 10:35:33;;;;;;;17.75;7.32;;;;;;;-147.95;100.00;58458.38;5079632;28;20033;-77
2023/09/11 10:38:00;;;;;;;15.52;7.60;;;;;;;-147.95;100.00;58458.38;5069853;28;20122;-77
2023/09/11 10:40:31;;;;;;;18.10;7.97;;;;;;;-147.95;100.00;58458.38;5056823;28;20040;-77
2023/09/11 10:42:58;;;;;;;18.38;8.00;;;;;;;-147.95;100.00;58458.38;5086697;28;20021;-77
2023/09/11 10:45:32;;;;;;;16.42;7.25;;;;;;;-147.95;100.00;58458.38;5085995;28;20115;-77
2023/09/11 10:47:57;;;;;;;17.08;7.07;;;;;;;-147.95;100.00;58458.38;5083163;28;20430;-77
2023/09/11 10:50:43;;;;;;;17.45;6.60;;;;;;;-147.95;100.00;58458.38;5075839;28;20028;-77
2023/09/11 10:53:09;;;;;;;30.65;6.70;;;;;;;-147.95;100.00;58458.38;5078795;28;20047;-77